Doris, Washington
Current Conditions -  °F | °C
As of 12:56 AM on Friday 24 Oct 2014 (Local Time) from K1YT Reporting Station
Broken Clouds Broken Clouds  
Wind Chill: 43°   Ceiling: 8000
Heat Index: 43°   Visibility: 10mi
Dew Point: 37°   Wind: 2mph
Humidity: 77%   Direction: 330°NNW
Pressure: 30.04"   Gusts: NA
Location:  46.8679°N, 120.008°W
Report Text: K1YT 240756Z AUTO 33002KT 10SM SCT070 BKN080 BKN230 06/03 A3004 RMK AO2 LTG DSNT NW SLPNO T00630026 401490051
Loading
Personal Weather Stations






























Interactive Weather Map
Tropical Storm Tracking
New forecast layout! Learn more

10-Day Weather Forecast

Advertisements
Track Severe Weather on mobile